Time;durP1;ratioP1;P1;durP2;ratioP2;P2;SDS_P1;SDS_P2;PMS_P1;PMS_P2;Temp;Humidity;BMP_temperature;BMP_pressure;BME280_temperature;BME280_humidity;BME280_pressure;Samples;Min_cycle;Max_cycle;Signal;HPM_P1;HPM_P2
2021/06/05 00:04:44;;;;;;;8.75;7.85;;;23.00;67.80;;;;;;10419188;28;20065;-62
2021/06/05 00:09:45;;;;;;;9.25;8.35;;;23.00;67.80;;;;;;10419082;28;20083;-62
2021/06/05 00:14:46;;;;;;;9.75;8.77;;;23.00;67.80;;;;;;10418123;28;20401;-61
2021/06/05 00:19:47;;;;;;;9.55;8.55;;;23.00;67.80;;;;;;10418403;28;20029;-61
2021/06/05 00:24:47;;;;;;;8.82;7.97;;;22.90;67.80;;;;;;10418410;28;20056;-62
2021/06/05 00:29:48;;;;;;;8.88;8.07;;;22.90;67.80;;;;;;10418446;28;20061;-62
2021/06/05 00:34:49;;;;;;;9.27;8.45;;;22.90;67.80;;;;;;10416924;28;20068;-62
2021/06/05 00:39:49;;;;;;;8.35;7.55;;;22.90;67.90;;;;;;10417530;28;20128;-62
2021/06/05 00:44:50;;;;;;;9.18;8.15;;;22.90;67.90;;;;;;10417677;28;20458;-62
2021/06/05 00:49:53;;;;;;;8.90;8.07;;;22.90;67.90;;;;;;10417462;28;20028;-62
2021/06/05 00:54:54;;;;;;;9.43;8.52;;;22.90;67.90;;;;;;10412253;28;20036;-61
2021/06/05 00:59:54;;;;;;;9.63;8.63;;;22.90;67.90;;;;;;10417158;28;20467;-61
2021/06/05 01:04:55;;;;;;;9.32;8.43;;;22.90;67.90;;;;;;10416844;28;20052;-62
2021/06/05 01:10:09;;;;;;;9.52;8.55;;;22.90;68.00;;;;;;10415346;28;20083;-62
2021/06/05 01:15:30;;;;;;;9.25;8.40;;;22.90;68.00;;;;;;10401245;28;20029;-61
2021/06/05 01:20:47;;;;;;;10.35;9.35;;;22.90;68.00;;;;;;10416061;28;20541;-62
2021/06/05 01:26:09;;;;;;;11.07;9.98;;;22.90;68.10;;;;;;10414860;28;20029;-62
2021/06/05 01:31:17;;;;;;;10.77;9.85;;;22.90;68.10;;;;;;10431170;28;20037;-62
2021/06/05 01:36:19;;;;;;;10.98;9.98;;;22.90;68.10;;;;;;10415922;28;20076;-61
2021/06/05 01:41:22;;;;;;;10.82;9.82;;;22.90;68.20;;;;;;10413813;28;20041;-61
2021/06/05 01:46:44;;;;;;;10.95;9.85;;;22.80;68.00;;;;;;10414025;28;20065;-61
2021/06/05 01:51:52;;;;;;;11.48;10.27;;;22.80;68.00;;;;;;10413837;28;20164;-61
2021/06/05 01:56:59;;;;;;;11.68;10.18;;;22.90;68.10;;;;;;10401764;28;20096;-62
2021/06/05 02:02:00;;;;;;;12.05;10.48;;;22.80;68.00;;;;;;10414675;28;20401;-61
2021/06/05 02:07:03;;;;;;;13.10;11.70;;;22.80;68.00;;;;;;10414526;28;20030;-61
2021/06/05 02:12:18;;;;;;;13.48;12.18;;;22.80;68.00;;;;;;10414413;28;20026;-61
2021/06/05 02:17:21;;;;;;;14.60;13.20;;;22.80;68.00;;;;;;10414485;28;20397;-61
2021/06/05 02:22:24;;;;;;;15.13;13.80;;;22.90;68.10;;;;;;10412909;28;20041;-61
2021/06/05 02:27:28;;;;;;;14.93;13.55;;;22.80;68.00;;;;;;10414348;28;20048;-62
2021/06/05 02:32:30;;;;;;;14.45;12.95;;;22.80;68.00;;;;;;10412831;28;20124;-62
2021/06/05 02:37:31;;;;;;;14.88;13.48;;;22.90;68.00;;;;;;10413000;28;20120;-62
2021/06/05 02:42:32;;;;;;;14.85;13.40;;;22.80;68.00;;;;;;10413491;28;20128;-61
2021/06/05 02:47:33;;;;;;;14.45;13.02;;;22.80;68.00;;;;;;10412602;28;20057;-62
2021/06/05 02:52:34;;;;;;;15.70;14.20;;;22.80;67.80;;;;;;10412382;28;20033;-62
2021/06/05 02:57:35;;;;;;;18.88;16.35;;;22.80;67.90;;;;;;10417422;28;20037;-62
2021/06/05 03:02:35;;;;;;;17.17;15.45;;;22.80;67.80;;;;;;10421345;28;20037;-61
2021/06/05 03:07:36;;;;;;;15.70;14.10;;;22.80;67.80;;;;;;10421418;28;20109;-61
2021/06/05 03:12:38;;;;;;;17.08;15.48;;;22.80;67.90;;;;;;10421162;28;20500;-62
2021/06/05 03:17:38;;;;;;;15.95;14.45;;;22.80;67.80;;;;;;10421431;28;20043;-62
2021/06/05 03:22:39;;;;;;;17.27;15.50;;;22.70;67.70;;;;;;10420150;28;20106;-61
2021/06/05 03:27:40;;;;;;;16.23;14.60;;;22.80;67.70;;;;;;10419272;28;20034;-61
2021/06/05 03:32:41;;;;;;;19.33;17.42;;;22.70;67.70;;;;;;10418433;28;20033;-61
2021/06/05 03:37:42;;;;;;;20.00;17.98;;;22.70;67.70;;;;;;10416158;28;20052;-61
2021/06/05 03:42:43;;;;;;;17.98;15.65;;;22.70;67.70;;;;;;10419228;28;20037;-61
2021/06/05 03:47:46;;;;;;;19.00;17.02;;;22.70;67.70;;;;;;10419703;28;20402;-61
2021/06/05 03:52:47;;;;;;;17.95;16.15;;;22.70;67.60;;;;;;10419694;28;20029;-62
2021/06/05 03:57:48;;;;;;;19.10;17.15;;;22.70;67.50;;;;;;10405106;28;20116;-62
2021/06/05 04:02:49;;;;;;;18.02;16.13;;;22.70;67.50;;;;;;10402197;28;20046;-61
2021/06/05 04:07:49;;;;;;;20.35;18.20;;;22.70;67.50;;;;;;10412410;28;20026;-61
2021/06/05 04:12:51;;;;;;;19.48;16.13;;;22.70;67.50;;;;;;10412544;28;20037;-61
2021/06/05 04:18:21;;;;;;;21.98;17.80;;;22.70;67.60;;;;;;10410668;28;20440;-61
2021/06/05 04:23:22;;;;;;;19.77;17.20;;;22.70;67.50;;;;;;10411937;28;20116;-62
2021/06/05 04:28:25;;;;;;;18.92;16.33;;;22.70;67.50;;;;;;10411734;28;20029;-61
2021/06/05 04:33:28;;;;;;;20.63;18.42;;;22.70;67.50;;;;;;10411441;28;20052;-61
2021/06/05 04:38:29;;;;;;;20.58;18.50;;;22.70;67.50;;;;;;10411127;28;20653;-61
2021/06/05 04:43:30;;;;;;;21.10;18.77;;;22.70;67.50;;;;;;10413338;28;20120;-61
2021/06/05 04:48:31;;;;;;;20.75;17.73;;;22.70;67.50;;;;;;10418107;28;20750;-62
2021/06/05 04:53:32;;;;;;;16.73;14.98;;;22.70;67.50;;;;;;10412214;28;20045;-60
2021/06/05 04:58:33;;;;;;;20.48;17.23;;;22.70;67.40;;;;;;10413388;28;20026;-61
2021/06/05 05:03:33;;;;;;;19.73;16.00;;;22.70;68.10;;;;;;10415997;28;20044;-59
2021/06/05 05:08:34;;;;;;;24.70;17.17;;;22.70;68.20;;;;;;10416299;28;20501;-58
2021/06/05 05:13:35;;;;;;;20.05;17.02;;;22.70;68.20;;;;;;10409479;28;20060;-58
2021/06/05 05:18:38;;;;;;;25.73;15.85;;;22.70;68.30;;;;;;10402234;28;20041;-60
2021/06/05 05:23:39;;;;;;;16.13;14.10;;;22.70;68.10;;;;;;10406726;28;20432;-61
2021/06/05 05:28:40;;;;;;;26.70;16.75;;;22.70;67.90;;;;;;10396280;28;20103;-57
2021/06/05 05:33:41;;;;;;;22.20;14.57;;;22.80;68.30;;;;;;10406812;28;20040;-58
2021/06/05 05:38:43;;;;;;;22.42;16.90;;;22.70;68.20;;;;;;10410156;28;20084;-59
2021/06/05 05:43:44;;;;;;;19.42;15.52;;;22.80;68.20;;;;;;10414737;28;20037;-60
2021/06/05 05:48:45;;;;;;;22.92;15.43;;;22.70;68.30;;;;;;10423345;28;20072;-61
2021/06/05 05:53:46;;;;;;;23.25;15.23;;;22.80;68.60;;;;;;10404299;28;20036;-60
2021/06/05 05:58:50;;;;;;;25.45;14.48;;;22.80;68.80;;;;;;10413942;28;20029;-61
2021/06/05 06:03:54;;;;;;;26.75;14.00;;;22.70;69.00;;;;;;10414516;28;20405;-62
2021/06/05 06:08:55;;;;;;;22.02;13.70;;;22.80;69.20;;;;;;10410036;28;20037;-63
2021/06/05 06:13:56;;;;;;;31.33;13.10;;;22.80;68.90;;;;;;10413895;28;20029;-62
2021/06/05 06:18:57;;;;;;;18.23;12.07;;;22.70;68.90;;;;;;10414086;28;20681;-60
2021/06/05 06:23:58;;;;;;;25.80;12.25;;;22.70;68.50;;;;;;10412772;28;20109;-64
2021/06/05 06:29:13;;;;;;;22.02;11.15;;;22.70;68.40;;;;;;10412171;28;20044;-63
2021/06/05 06:34:16;;;;;;;30.52;13.48;;;22.70;69.10;;;;;;10413148;28;20026;-62
2021/06/05 06:39:17;;;;;;;23.48;14.13;;;22.70;68.90;;;;;;10422462;28;20034;-61
2021/06/05 06:44:18;;;;;;;20.85;12.50;;;22.80;69.50;;;;;;10427791;28;20033;-61
2021/06/05 06:49:21;;;;;;;21.23;12.70;;;22.80;70.50;;;;;;10420925;28;20033;-59
2021/06/05 06:54:22;;;;;;;24.90;12.20;;;22.80;70.70;;;;;;10420153;28;20041;-61
2021/06/05 06:59:23;;;;;;;39.45;12.35;;;22.80;70.90;;;;;;10420505;28;20032;-60
2021/06/05 07:04:23;;;;;;;23.65;11.80;;;22.80;70.10;;;;;;10417914;28;20043;-62
2021/06/05 07:09:24;;;;;;;24.65;11.48;;;22.80;70.10;;;;;;10421246;28;20104;-69
2021/06/05 07:14:25;;;;;;;20.05;11.13;;;22.80;70.00;;;;;;10421212;28;20049;-67
2021/06/05 07:19:27;;;;;;;20.33;11.30;;;22.80;69.90;;;;;;10420864;28;20374;-66
2021/06/05 07:24:28;;;;;;;20.63;10.93;;;22.80;69.50;;;;;;10420021;28;20033;-64
2021/06/05 07:29:29;;;;;;;24.25;12.43;;;22.80;69.80;;;;;;10419415;28;20613;-64
2021/06/05 07:34:29;;;;;;;13.98;10.10;;;22.80;69.90;;;;;;10410518;28;20028;-62
2021/06/05 07:39:31;;;;;;;21.02;10.50;;;22.80;69.40;;;;;;10411653;28;20120;-62
2021/06/05 07:44:32;;;;;;;17.85;9.55;;;22.70;69.40;;;;;;10424621;28;20025;-62
2021/06/05 07:49:38;;;;;;;16.83;10.45;;;22.70;69.60;;;;;;10417905;28;20373;-62
2021/06/05 07:54:39;;;;;;;16.25;8.93;;;22.70;69.50;;;;;;10433054;28;20041;-61
2021/06/05 07:59:41;;;;;;;12.48;8.70;;;22.70;69.60;;;;;;10418941;28;20036;-62
2021/06/05 08:04:42;;;;;;;14.07;9.10;;;22.70;69.40;;;;;;10419052;28;20044;-62
2021/06/05 08:09:43;;;;;;;9.98;8.35;;;22.70;69.40;;;;;;10419354;28;20079;-62
2021/06/05 08:14:43;;;;;;;11.50;8.40;;;22.70;69.20;;;;;;10418829;28;20484;-63
2021/06/05 08:19:44;;;;;;;10.07;7.60;;;22.70;68.90;;;;;;10418845;28;20040;-63
2021/06/05 08:24:44;;;;;;;8.98;8.05;;;22.70;68.80;;;;;;10418456;28;20037;-63
2021/06/05 08:29:45;;;;;;;11.63;8.77;;;22.70;68.60;;;;;;10418521;28;20109;-62
2021/06/05 08:34:46;;;;;;;12.65;7.88;;;22.70;68.70;;;;;;10417908;28;20046;-62
2021/06/05 08:39:47;;;;;;;9.25;7.13;;;22.70;68.60;;;;;;10417751;28;20041;-63
2021/06/05 08:44:50;;;;;;;9.55;8.50;;;22.70;68.50;;;;;;10424114;28;20519;-62
2021/06/05 08:49:52;;;;;;;9.95;8.02;;;22.60;68.50;;;;;;10416473;28;20064;-62
2021/06/05 08:55:10;;;;;;;12.02;7.53;;;22.70;68.60;;;;;;10415087;28;20029;-63
2021/06/05 09:00:28;;;;;;;13.07;8.57;;;22.60;68.40;;;;;;10416164;28;20088;-62
2021/06/05 09:05:34;;;;;;;9.15;7.28;;;22.60;68.40;;;;;;10415705;28;20034;-62
2021/06/05 09:10:35;;;;;;;7.75;6.90;;;22.60;68.50;;;;;;10399702;28;20079;-62
2021/06/05 09:15:36;;;;;;;10.23;7.55;;;22.60;68.40;;;;;;10416228;28;20068;-61
2021/06/05 09:20:45;;;;;;;9.88;6.93;;;22.60;68.30;;;;;;10416610;28;20114;-62
2021/06/05 09:25:46;;;;;;;10.68;7.22;;;22.60;68.30;;;;;;10415726;28;20041;-62
2021/06/05 09:30:49;;;;;;;8.38;7.00;;;22.60;68.30;;;;;;10415669;28;20033;-62
2021/06/05 09:35:50;;;;;;;8.18;7.18;;;22.60;68.20;;;;;;10402435;28;20116;-62
2021/06/05 09:41:02;;;;;;;9.93;7.65;;;22.60;68.20;;;;;;10416773;28;20128;-62
2021/06/05 09:46:12;;;;;;;9.45;7.47;;;22.60;68.20;;;;;;10418882;28;20038;-62
2021/06/05 09:51:38;;;;;;;7.00;5.82;;;22.60;68.30;;;;;;10415362;28;20028;-63
2021/06/05 09:56:44;;;;;;;8.02;6.97;;;22.60;68.30;;;;;;10413991;28;20067;-62
2021/06/05 10:02:03;;;;;;;7.72;6.43;;;22.60;67.90;;;;;;10414682;28;20087;-62
2021/06/05 10:07:24;;;;;;;8.40;5.95;;;22.60;68.10;;;;;;10414075;28;20033;-63
2021/06/05 10:12:28;;;;;;;8.13;6.82;;;22.60;68.00;;;;;;10413514;28;20406;-62
2021/06/05 10:17:43;;;;;;;6.47;5.78;;;22.60;68.80;;;;;;10413388;28;20436;-61
2021/06/05 10:22:45;;;;;;;7.88;5.90;;;22.60;67.90;;;;;;10412591;28;20037;-62
2021/06/05 10:27:47;;;;;;;7.07;6.10;;;22.60;67.80;;;;;;10413201;28;20025;-62
2021/06/05 10:32:48;;;;;;;7.35;6.60;;;22.60;67.90;;;;;;10412696;28;20025;-62
2021/06/05 10:37:49;;;;;;;7.25;6.55;;;22.60;68.00;;;;;;10398541;28;20079;-64
2021/06/05 10:42:53;;;;;;;9.88;6.35;;;22.60;67.90;;;;;;10416978;28;20075;-62
2021/06/05 10:48:06;;;;;;;8.30;6.28;;;22.60;68.40;;;;;;10413412;28;20060;-60
2021/06/05 10:53:32;;;;;;;9.77;6.95;;;22.60;68.30;;;;;;10412661;28;20032;-61
2021/06/05 10:58:36;;;;;;;24.52;17.00;;;22.60;68.40;;;;;;10412620;28;20095;-59
2021/06/05 11:03:36;;;;;;;36.85;32.03;;;22.60;69.50;;;;;;10426852;28;20034;-58
2021/06/05 11:08:51;;;;;;;24.88;16.90;;;22.70;70.50;;;;;;10413645;28;20569;-55
2021/06/05 11:13:53;;;;;;;15.63;11.27;;;22.70;71.10;;;;;;10412025;28;20029;-58
2021/06/05 11:18:53;;;;;;;19.33;10.38;;;22.70;70.50;;;;;;10417672;28;20017;-56
2021/06/05 11:23:57;;;;;;;14.82;9.88;;;22.70;70.10;;;;;;10420790;28;20029;-61
2021/06/05 11:28:58;;;;;;;10.45;8.82;;;22.80;69.70;;;;;;10415850;28;20089;-59
2021/06/05 11:33:58;;;;;;;14.68;8.13;;;22.80;69.90;;;;;;10417502;28;20061;-60
2021/06/05 11:38:59;;;;;;;11.15;8.70;;;22.80;70.00;;;;;;10419543;28;20073;-58
2021/06/05 11:44:26;;;;;;;10.82;7.82;;;22.80;70.00;;;;;;10420868;28;20036;-58
2021/06/05 11:49:42;;;;;;;13.52;8.00;;;22.80;70.10;;;;;;10404499;28;20057;-58
2021/06/05 11:54:42;;;;;;;10.10;8.52;;;22.90;70.00;;;;;;10417537;28;20405;-58
2021/06/05 11:59:45;;;;;;;11.70;8.35;;;22.80;69.90;;;;;;10418483;28;20057;-60
2021/06/05 12:05:11;;;;;;;10.52;7.40;;;22.80;69.60;;;;;;10417119;28;20034;-60
2021/06/05 12:10:33;;;;;;;12.07;7.85;;;22.80;69.50;;;;;;10417866;28;20034;-62
2021/06/05 12:15:38;;;;;;;11.30;7.88;;;22.80;69.50;;;;;;10418563;28;20037;-64
2021/06/05 12:20:46;;;;;;;12.38;7.93;;;22.80;69.40;;;;;;10417331;28;20037;-65
2021/06/05 12:25:47;;;;;;;10.32;7.57;;;22.80;69.30;;;;;;10418351;28;20097;-66
2021/06/05 12:30:49;;;;;;;9.50;7.35;;;22.70;69.20;;;;;;10416784;28;20040;-65
2021/06/05 12:35:50;;;;;;;10.43;7.82;;;22.80;69.20;;;;;;10403972;28;20029;-62
2021/06/05 12:40:58;;;;;;;8.90;7.00;;;22.80;69.10;;;;;;10419113;28;20557;-60
2021/06/05 12:46:07;;;;;;;8.85;7.47;;;22.80;69.10;;;;;;10398718;28;20029;-69
2021/06/05 12:51:14;;;;;;;12.25;8.35;;;22.70;69.00;;;;;;10416710;28;20083;-62
2021/06/05 12:56:34;;;;;;;11.63;8.45;;;22.70;69.00;;;;;;10416078;28;20071;-66
2021/06/05 13:01:42;;;;;;;8.10;7.07;;;22.70;69.10;;;;;;10416258;28;20045;-66
2021/06/05 13:07:03;;;;;;;10.00;8.50;;;22.70;68.90;;;;;;10416209;28;20084;-64
2021/06/05 13:12:27;;;;;;;11.77;9.20;;;22.70;69.30;;;;;;10415223;28;20025;-67
2021/06/05 13:17:37;;;;;;;12.35;8.68;;;22.70;69.30;;;;;;10416011;28;20421;-65
2021/06/05 13:22:38;;;;;;;18.60;12.05;;;22.70;69.10;;;;;;10412582;28;20103;-67
2021/06/05 13:27:58;;;;;;;8.75;7.53;;;22.80;69.30;;;;;;10415400;28;20028;-67
2021/06/05 13:32:59;;;;;;;14.85;9.82;;;22.70;69.00;;;;;;10412579;28;20041;-67
2021/06/05 13:38:16;;;;;;;11.40;9.32;;;22.70;68.70;;;;;;10415573;28;20050;-68
2021/06/05 13:43:17;;;;;;;12.23;10.52;;;22.70;68.70;;;;;;10420991;28;20087;-68
2021/06/05 13:48:18;;;;;;;13.95;10.90;;;22.70;68.70;;;;;;10402767;28;20502;-68
2021/06/05 13:53:29;;;;;;;10.98;9.70;;;22.70;68.60;;;;;;10415488;28;20064;-67
2021/06/05 13:58:31;;;;;;;10.77;9.60;;;22.70;68.60;;;;;;10415176;28;20041;-67
2021/06/05 14:03:34;;;;;;;13.60;12.13;;;22.70;68.50;;;;;;10414749;28;20040;-67
2021/06/05 14:08:35;;;;;;;14.20;11.25;;;22.70;68.50;;;;;;10414682;28;20041;-67
2021/06/05 14:13:36;;;;;;;14.07;10.23;;;22.70;68.50;;;;;;10414678;28;20435;-67
2021/06/05 14:18:36;;;;;;;13.20;10.82;;;22.70;68.50;;;;;;10414258;28;20033;-67
2021/06/05 14:23:37;;;;;;;12.98;10.55;;;22.70;68.50;;;;;;10414489;28;20049;-67
2021/06/05 14:28:42;;;;;;;15.20;10.02;;;22.70;68.40;;;;;;10396574;28;20465;-68
2021/06/05 14:33:43;;;;;;;12.38;10.18;;;22.70;68.40;;;;;;10411139;28;20068;-65
2021/06/05 14:38:44;;;;;;;11.75;10.45;;;22.70;68.40;;;;;;10412884;28;20049;-65
2021/06/05 14:43:46;;;;;;;12.00;10.70;;;22.70;68.30;;;;;;10419276;28;20033;-65
2021/06/05 14:48:50;;;;;;;13.23;10.43;;;22.70;68.30;;;;;;10412685;28;20029;-65
2021/06/05 14:53:51;;;;;;;14.27;10.20;;;22.60;68.20;;;;;;10418213;28;20087;-65
2021/06/05 14:58:52;;;;;;;13.10;10.82;;;22.60;68.20;;;;;;10422052;28;20121;-65
2021/06/05 15:03:52;;;;;;;11.60;10.18;;;22.60;68.10;;;;;;10413915;28;20041;-65
2021/06/05 15:08:53;;;;;;;13.55;10.65;;;22.60;68.10;;;;;;10420198;28;20501;-68
2021/06/05 15:13:54;;;;;;;11.95;10.75;;;22.70;68.10;;;;;;10421712;28;20033;-69
2021/06/05 15:18:55;;;;;;;13.05;11.75;;;22.70;68.00;;;;;;10421046;28;20489;-71
2021/06/05 15:23:56;;;;;;;19.27;12.40;;;22.60;68.30;;;;;;10419864;28;20042;-69
2021/06/05 15:28:57;;;;;;;18.40;15.60;;;22.70;68.60;;;;;;10420571;28;20108;-67
2021/06/05 15:33:58;;;;;;;20.15;13.90;;;22.70;68.40;;;;;;10418166;28;20120;-66
2021/06/05 15:38:59;;;;;;;18.20;14.35;;;22.70;68.60;;;;;;10406892;28;20137;-66
2021/06/05 15:44:00;;;;;;;18.08;14.07;;;22.70;68.40;;;;;;10426381;28;20422;-64
2021/06/05 15:49:01;;;;;;;17.10;13.82;;;22.80;68.20;;;;;;10420051;28;20069;-63
2021/06/05 15:54:16;;;;;;;22.83;17.50;;;22.80;68.60;;;;;;10418686;28;20142;-68
2021/06/05 15:59:17;;;;;;;21.10;17.98;;;22.80;68.80;;;;;;10418197;28;20033;-61
2021/06/05 16:04:22;;;;;;;21.30;17.20;;;22.90;69.30;;;;;;10421398;28;20037;-61
2021/06/05 16:09:22;;;;;;;30.50;18.67;;;22.90;70.30;;;;;;10417726;28;20421;-59
2021/06/05 16:14:23;;;;;;;23.88;19.70;;;23.00;70.40;;;;;;10417734;28;20033;-60
2021/06/05 16:19:26;;;;;;;23.38;18.33;;;23.00;71.20;;;;;;10418322;28;20029;-60
2021/06/05 16:24:29;;;;;;;25.45;17.85;;;23.10;71.40;;;;;;10417926;28;20038;-64
2021/06/05 16:29:31;;;;;;;38.17;18.23;;;23.10;71.50;;;;;;10418560;28;20108;-62
2021/06/05 16:34:32;;;;;;;38.05;19.17;;;23.10;72.60;;;;;;10408469;28;20060;-64
2021/06/05 16:39:33;;;;;;;22.90;17.92;;;23.10;72.50;;;;;;10414856;28;20421;-60
2021/06/05 16:44:34;;;;;;;26.58;17.90;;;23.20;72.70;;;;;;10422773;28;20033;-63
2021/06/05 16:49:35;;;;;;;26.85;17.77;;;23.10;72.30;;;;;;10418017;28;20032;-63
2021/06/05 16:54:35;;;;;;;20.42;17.38;;;23.10;71.80;;;;;;10417412;28;20036;-64
2021/06/05 16:59:36;;;;;;;23.40;17.83;;;23.10;71.70;;;;;;10416247;28;20053;-64
2021/06/05 17:04:37;;;;;;;26.35;18.13;;;23.10;71.50;;;;;;10415694;28;20034;-63
2021/06/05 17:09:37;;;;;;;24.40;18.33;;;23.00;71.10;;;;;;10415899;28;20029;-63
2021/06/05 17:14:38;;;;;;;25.83;18.20;;;23.00;71.00;;;;;;10414784;28;20064;-63
2021/06/05 17:19:39;;;;;;;20.80;18.00;;;23.00;70.80;;;;;;10416015;28;20059;-65
2021/06/05 17:24:39;;;;;;;25.10;18.05;;;23.00;71.30;;;;;;10415904;28;20040;-65
2021/06/05 17:29:43;;;;;;;24.88;17.77;;;23.00;71.20;;;;;;10416434;28;20040;-64
2021/06/05 17:34:48;;;;;;;21.45;17.23;;;23.00;71.00;;;;;;10415665;28;20037;-65
2021/06/05 17:39:51;;;;;;;23.27;17.25;;;22.90;70.60;;;;;;10415848;28;20049;-65
2021/06/05 17:44:51;;;;;;;19.95;17.05;;;23.00;70.50;;;;;;10420852;28;20065;-64
2021/06/05 17:49:52;;;;;;;24.30;16.17;;;22.90;70.30;;;;;;10415529;28;20049;-65
2021/06/05 17:54:53;;;;;;;25.27;18.02;;;22.90;70.10;;;;;;10414038;28;20025;-65
2021/06/05 17:59:53;;;;;;;21.55;16.48;;;22.90;70.00;;;;;;10414989;28;20115;-65
2021/06/05 18:04:54;;;;;;;21.77;17.15;;;22.90;69.90;;;;;;10415329;28;20390;-64
2021/06/05 18:09:56;;;;;;;19.98;17.52;;;22.80;69.80;;;;;;10414603;28;20025;-63
2021/06/05 18:14:57;;;;;;;18.15;16.20;;;22.80;69.70;;;;;;10413494;28;20087;-63
2021/06/05 18:19:57;;;;;;;24.35;17.98;;;22.80;69.60;;;;;;10414647;28;20065;-64
2021/06/05 18:24:58;;;;;;;18.83;15.95;;;22.80;69.50;;;;;;10414493;28;20090;-65
2021/06/05 18:29:59;;;;;;;18.75;15.88;;;22.80;69.30;;;;;;10414416;28;20040;-64
2021/06/05 18:35:01;;;;;;;20.58;16.42;;;22.80;69.20;;;;;;10401278;28;20027;-65
2021/06/05 18:40:04;;;;;;;19.25;16.60;;;22.70;69.10;;;;;;10399679;28;20049;-64
2021/06/05 18:45:08;;;;;;;18.60;16.48;;;22.70;69.00;;;;;;10420154;28;20033;-66
2021/06/05 18:50:13;;;;;;;20.02;16.42;;;22.70;68.80;;;;;;10412644;28;20509;-65
2021/06/05 18:55:18;;;;;;;18.52;15.40;;;22.70;68.70;;;;;;10413903;28;20412;-65
2021/06/05 19:00:26;;;;;;;17.65;15.65;;;22.70;68.70;;;;;;10413811;28;20033;-65
2021/06/05 19:05:32;;;;;;;16.70;14.98;;;22.70;68.70;;;;;;10413695;28;20064;-65
2021/06/05 19:10:33;;;;;;;18.58;16.15;;;22.70;68.70;;;;;;10413835;28;20448;-65
2021/06/05 19:15:40;;;;;;;21.02;17.13;;;22.70;68.60;;;;;;10413584;28;20037;-65
2021/06/05 19:20:42;;;;;;;17.95;16.08;;;22.70;68.60;;;;;;10411815;28;20029;-65
2021/06/05 19:25:45;;;;;;;18.42;16.50;;;22.60;68.50;;;;;;10412038;28;20040;-64
2021/06/05 19:30:53;;;;;;;18.73;16.75;;;22.60;68.40;;;;;;10412260;28;20026;-64
2021/06/05 19:35:54;;;;;;;24.67;17.97;;;22.60;68.30;;;;;;10412035;28;20485;-64
2021/06/05 19:40:55;;;;;;;18.85;16.80;;;22.60;68.20;;;;;;10417914;28;20045;-64
2021/06/05 19:45:57;;;;;;;20.55;18.25;;;22.60;68.20;;;;;;10420098;28;20013;-66
2021/06/05 19:50:58;;;;;;;21.15;17.75;;;22.60;68.10;;;;;;10418270;28;20029;-65
2021/06/05 19:56:01;;;;;;;20.83;17.48;;;22.60;68.10;;;;;;10413533;28;20113;-65
2021/06/05 20:01:13;;;;;;;22.20;17.75;;;22.60;68.00;;;;;;10417849;28;20362;-65
2021/06/05 20:06:15;;;;;;;18.35;16.40;;;22.50;68.00;;;;;;10416662;28;20497;-64
2021/06/05 20:11:26;;;;;;;30.42;19.40;;;22.60;67.90;;;;;;10418159;28;20033;-65
2021/06/05 20:16:27;;;;;;;20.85;16.85;;;22.50;67.90;;;;;;10418281;28;20080;-65
2021/06/05 20:21:37;;;;;;;21.35;19.10;;;22.50;67.90;;;;;;10418171;28;20033;-65
2021/06/05 20:26:41;;;;;;;19.30;17.10;;;22.50;67.80;;;;;;10418705;28;20025;-65
2021/06/05 20:31:42;;;;;;;22.38;18.00;;;22.50;67.70;;;;;;10418315;28;20030;-65
2021/06/05 20:36:44;;;;;;;19.13;16.30;;;22.50;67.70;;;;;;10406569;28;20033;-65
2021/06/05 20:41:46;;;;;;;22.27;17.10;;;22.50;67.70;;;;;;10423551;28;20048;-63
2021/06/05 20:46:48;;;;;;;25.08;20.23;;;22.40;67.60;;;;;;10418147;28;20028;-65
2021/06/05 20:51:55;;;;;;;20.58;17.70;;;22.50;67.60;;;;;;10416765;28;20029;-65
2021/06/05 20:56:56;;;;;;;20.10;18.00;;;22.40;67.60;;;;;;10416240;28;20041;-65
2021/06/05 21:01:59;;;;;;;22.27;18.08;;;22.50;67.60;;;;;;10417384;28;20040;-65
2021/06/05 21:07:02;;;;;;;23.60;18.52;;;22.40;67.50;;;;;;10416108;28;20056;-63
2021/06/05 21:12:03;;;;;;;20.15;17.40;;;22.40;67.50;;;;;;10417306;28;20029;-65
2021/06/05 21:17:04;;;;;;;21.95;17.88;;;22.40;67.40;;;;;;10417002;28;20397;-65
2021/06/05 21:22:05;;;;;;;20.05;17.83;;;22.40;67.40;;;;;;10416405;28;20120;-65
2021/06/05 21:27:06;;;;;;;19.88;16.13;;;22.40;67.50;;;;;;10431709;28;20179;-65
2021/06/05 21:32:07;;;;;;;23.27;18.77;;;22.40;67.40;;;;;;10416062;28;20076;-64
2021/06/05 21:37:08;;;;;;;20.25;16.88;;;22.40;67.30;;;;;;10415783;28;20056;-65
2021/06/05 21:42:09;;;;;;;19.05;17.05;;;22.40;67.30;;;;;;10422072;28;20060;-64
2021/06/05 21:47:10;;;;;;;19.55;17.48;;;22.30;67.30;;;;;;10431017;28;20430;-65
2021/06/05 21:52:11;;;;;;;21.92;17.52;;;22.30;67.20;;;;;;10415431;28;20091;-65
2021/06/05 21:57:12;;;;;;;22.80;18.30;;;22.30;67.20;;;;;;10415612;28;20509;-65
2021/06/05 22:02:13;;;;;;;23.50;17.35;;;22.30;67.30;;;;;;10413475;28;20030;-65
2021/06/05 22:07:14;;;;;;;20.48;17.13;;;22.30;67.30;;;;;;10430669;28;20028;-65
2021/06/05 22:12:15;;;;;;;18.63;16.63;;;22.30;67.20;;;;;;10414821;28;20112;-65
2021/06/05 22:17:24;;;;;;;17.30;15.57;;;22.30;67.10;;;;;;10414925;28;20168;-65
2021/06/05 22:22:33;;;;;;;19.98;17.80;;;22.30;67.10;;;;;;10414384;28;20390;-65
2021/06/05 22:27:39;;;;;;;20.35;18.00;;;22.30;67.10;;;;;;10413341;28;20021;-64
2021/06/05 22:32:40;;;;;;;19.52;17.52;;;22.30;67.10;;;;;;10412934;28;20052;-65
2021/06/05 22:37:41;;;;;;;19.80;17.25;;;22.20;67.10;;;;;;10400894;28;20203;-65
2021/06/05 22:42:43;;;;;;;18.75;15.95;;;22.20;67.10;;;;;;10420452;28;20057;-62
2021/06/05 22:47:43;;;;;;;17.42;15.57;;;22.20;67.10;;;;;;10414559;28;20025;-63
2021/06/05 22:52:44;;;;;;;20.30;17.40;;;22.20;67.10;;;;;;10414086;28;20082;-62
2021/06/05 22:57:46;;;;;;;22.48;16.83;;;22.20;67.10;;;;;;10412910;28;20389;-63
2021/06/05 23:02:47;;;;;;;18.20;15.98;;;22.20;67.00;;;;;;10413550;28;20083;-62
2021/06/05 23:07:48;;;;;;;17.63;15.82;;;22.20;67.10;;;;;;10413931;28;20031;-62
2021/06/05 23:12:50;;;;;;;17.40;15.52;;;22.20;67.00;;;;;;10414395;28;20056;-62
2021/06/05 23:17:51;;;;;;;17.15;15.45;;;22.20;67.00;;;;;;10421717;28;20026;-62
2021/06/05 23:22:52;;;;;;;16.48;14.73;;;22.20;67.00;;;;;;10421167;28;20037;-62
2021/06/05 23:27:53;;;;;;;18.20;16.15;;;22.20;67.00;;;;;;10420951;28;20021;-62
2021/06/05 23:32:54;;;;;;;20.42;15.90;;;22.10;66.90;;;;;;10419813;28;20036;-62
2021/06/05 23:37:55;;;;;;;16.27;14.57;;;22.10;67.50;;;;;;10420773;28;20083;-62
2021/06/05 23:42:56;;;;;;;15.82;14.13;;;22.10;66.80;;;;;;10425714;28;20083;-62
2021/06/05 23:47:57;;;;;;;15.13;13.38;;;22.10;66.80;;;;;;10420191;28;20032;-61
2021/06/05 23:53:00;;;;;;;15.15;13.55;;;22.10;66.90;;;;;;10419971;28;20559;-62
2021/06/05 23:58:01;;;;;;;14.00;12.60;;;22.10;66.90;;;;;;10419896;28;20036;-62
